Time;durP1;ratioP1;P1;durP2;ratioP2;P2;SDS_P1;SDS_P2;PMS_P1;PMS_P2;Temp;Humidity;BMP_temperature;BMP_pressure;BME280_temperature;BME280_humidity;BME280_pressure;Samples;Min_cycle;Max_cycle;Signal;HPM_P1;HPM_P2
2022/12/03 00:01:18;;;;;;;77.15;23.00;;;;;;;;;;5042913;28;20029;-65
2022/12/03 00:03:43;;;;;;;74.25;23.65;;;;;;;;;;5043337;28;20037;-67
2022/12/03 00:06:08;;;;;;;79.47;28.75;;;;;;;;;;5041423;28;20032;-66
2022/12/03 00:08:33;;;;;;;76.68;26.48;;;;;;;;;;5045166;28;20260;-67
2022/12/03 00:10:58;;;;;;;75.10;25.83;;;;;;;;;;5042447;28;20029;-64
2022/12/03 00:13:24;;;;;;;68.57;22.63;;;;;;;;;;5042542;28;20029;-66
2022/12/03 00:15:49;;;;;;;89.30;31.00;;;;;;;;;;5044429;28;20024;-66
2022/12/03 00:18:14;;;;;;;84.63;31.35;;;;;;;;;;5043816;28;20074;-68
2022/12/03 00:20:39;;;;;;;74.45;23.98;;;;;;;;;;5043165;28;20013;-65
2022/12/03 00:23:05;;;;;;;68.93;22.73;;;;;;;;;;5041249;28;20047;-66
2022/12/03 00:25:30;;;;;;;73.97;25.67;;;;;;;;;;5043037;28;20027;-64
2022/12/03 00:27:55;;;;;;;70.57;25.50;;;;;;;;;;5044566;28;20151;-66
2022/12/03 00:30:20;;;;;;;75.18;25.02;;;;;;;;;;5043140;28;20191;-67
2022/12/03 00:32:45;;;;;;;90.10;31.15;;;;;;;;;;5041584;28;20024;-64
2022/12/03 00:35:11;;;;;;;63.70;23.55;;;;;;;;;;5041444;28;20009;-67
2022/12/03 00:37:36;;;;;;;76.57;28.70;;;;;;;;;;5042427;28;20013;-65
2022/12/03 00:40:04;;;;;;;74.10;22.60;;;;;;;;;;5043156;28;21192;-66
2022/12/03 00:42:30;;;;;;;64.28;20.95;;;;;;;;;;5043276;28;20064;-66
2022/12/03 00:44:55;;;;;;;72.90;24.85;;;;;;;;;;5041578;28;20083;-66
2022/12/03 00:47:20;;;;;;;68.70;24.52;;;;;;;;;;5041476;28;20037;-67
2022/12/03 00:49:46;;;;;;;81.53;26.92;;;;;;;;;;5042627;28;20028;-65
2022/12/03 00:52:11;;;;;;;59.30;20.95;;;;;;;;;;5042141;28;20017;-67
2022/12/03 00:54:36;;;;;;;79.40;27.70;;;;;;;;;;5040562;28;20021;-64
2022/12/03 00:57:01;;;;;;;73.18;26.05;;;;;;;;;;5041465;28;20028;-66
2022/12/03 00:59:26;;;;;;;72.43;22.60;;;;;;;;;;5043474;28;20033;-66
2022/12/03 01:01:52;;;;;;;63.45;22.00;;;;;;;;;;5042225;28;20041;-67
2022/12/03 01:04:17;;;;;;;66.22;23.40;;;;;;;;;;5041303;28;20236;-66
2022/12/03 01:06:42;;;;;;;63.20;22.27;;;;;;;;;;5041553;28;20027;-67
2022/12/03 01:09:07;;;;;;;60.53;23.35;;;;;;;;;;5041768;28;20118;-64
2022/12/03 01:11:40;;;;;;;78.15;25.90;;;;;;;;;;5041526;28;20516;-67
2022/12/03 01:14:06;;;;;;;73.72;23.35;;;;;;;;;;5041612;28;20028;-64
2022/12/03 01:16:31;;;;;;;70.63;25.70;;;;;;;;;;5043758;28;20029;-66
2022/12/03 01:18:56;;;;;;;65.10;22.30;;;;;;;;;;5042428;28;20495;-66
2022/12/03 01:21:22;;;;;;;73.18;22.60;;;;;;;;;;5041614;28;20040;-66
2022/12/03 01:23:47;;;;;;;68.38;24.00;;;;;;;;;;5040387;28;20025;-67
2022/12/03 01:26:12;;;;;;;67.88;24.55;;;;;;;;;;5041484;28;20029;-65
2022/12/03 01:28:37;;;;;;;70.72;25.33;;;;;;;;;;5042212;28;20032;-65
2022/12/03 01:33:46;;;;;;;59.20;23.80;;;;;;;;;;5039228;28;20547;-66
2022/12/03 01:36:12;;;;;;;71.30;26.80;;;;;;;;;;5040368;28;20100;-66
2022/12/03 01:38:37;;;;;;;78.07;22.45;;;;;;;;;;5042609;28;20090;-64
2022/12/03 01:41:02;;;;;;;71.97;25.15;;;;;;;;;;5042123;28;20093;-66
2022/12/03 01:43:27;;;;;;;64.10;22.45;;;;;;;;;;5039927;28;20099;-65
2022/12/03 01:45:53;;;;;;;59.00;23.05;;;;;;;;;;5041227;28;20691;-67
2022/12/03 01:48:18;;;;;;;66.50;24.10;;;;;;;;;;5042422;28;20565;-66
2022/12/03 01:50:44;;;;;;;55.38;21.90;;;;;;;;;;5043965;28;20455;-67
2022/12/03 01:53:10;;;;;;;68.13;22.35;;;;;;;;;;5042328;28;20025;-65
2022/12/03 01:55:35;;;;;;;64.72;24.08;;;;;;;;;;5043882;28;20055;-65
2022/12/03 01:58:01;;;;;;;63.65;23.15;;;;;;;;;;5044123;28;20056;-63
2022/12/03 02:00:26;;;;;;;75.15;24.48;;;;;;;;;;5042951;28;20028;-66
2022/12/03 02:02:56;;;;;;;60.20;22.73;;;;;;;;;;5040501;28;20697;-67
2022/12/03 02:05:23;;;;;;;72.63;22.13;;;;;;;;;;5040607;28;20033;-67
2022/12/03 02:07:49;;;;;;;69.95;21.90;;;;;;;;;;5042054;28;20035;-65
2022/12/03 02:10:15;;;;;;;58.03;20.67;;;;;;;;;;5039701;28;20029;-66
2022/12/03 02:13:10;;;;;;;61.83;23.10;;;;;;;;;;5041625;28;20025;-66
2022/12/03 02:15:37;;;;;;;64.45;21.88;;;;;;;;;;5038071;28;20128;-63
2022/12/03 02:18:02;;;;;;;57.55;21.63;;;;;;;;;;5041888;28;20108;-66
2022/12/03 02:20:29;;;;;;;67.35;21.83;;;;;;;;;;5041316;28;20127;-67
2022/12/03 02:23:01;;;;;;;62.92;23.02;;;;;;;;;;5047798;28;20035;-65
2022/12/03 02:25:30;;;;;;;55.60;21.17;;;;;;;;;;5039471;28;20111;-67
2022/12/03 02:27:56;;;;;;;57.72;21.92;;;;;;;;;;5043146;28;20032;-66
2022/12/03 02:30:22;;;;;;;59.38;22.38;;;;;;;;;;5042346;28;20037;-67
2022/12/03 02:32:48;;;;;;;53.10;20.02;;;;;;;;;;5038219;28;20020;-65
2022/12/03 02:35:14;;;;;;;58.10;20.40;;;;;;;;;;5039644;28;20562;-65
2022/12/03 02:37:40;;;;;;;62.85;21.85;;;;;;;;;;5042195;28;20021;-66
2022/12/03 02:40:07;;;;;;;71.43;21.50;;;;;;;;;;5041216;28;20024;-65
2022/12/03 02:42:35;;;;;;;58.85;22.00;;;;;;;;;;5041301;28;20105;-64
2022/12/03 02:45:03;;;;;;;67.23;22.33;;;;;;;;;;5038676;28;20677;-66
2022/12/03 02:47:29;;;;;;;59.88;21.40;;;;;;;;;;5040833;28;20113;-65
2022/12/03 02:49:55;;;;;;;47.35;18.90;;;;;;;;;;5040948;28;20029;-63
2022/12/03 02:52:21;;;;;;;55.47;19.80;;;;;;;;;;5040760;28;20052;-67
2022/12/03 02:54:46;;;;;;;64.25;22.80;;;;;;;;;;5037287;28;20123;-66
2022/12/03 02:57:11;;;;;;;64.78;21.80;;;;;;;;;;5044017;28;20820;-64
2022/12/03 02:59:37;;;;;;;60.85;21.35;;;;;;;;;;5045009;28;20108;-67
2022/12/03 03:02:02;;;;;;;58.80;21.90;;;;;;;;;;5044541;28;20037;-66
2022/12/03 03:04:27;;;;;;;55.42;20.10;;;;;;;;;;5042160;28;20137;-67
2022/12/03 03:06:53;;;;;;;63.53;22.13;;;;;;;;;;5044063;28;20414;-66
2022/12/03 03:09:19;;;;;;;54.17;20.83;;;;;;;;;;5044286;28;20033;-67
2022/12/03 03:11:44;;;;;;;60.97;20.55;;;;;;;;;;5042999;28;20051;-63
2022/12/03 03:14:09;;;;;;;65.93;22.42;;;;;;;;;;5040640;28;20502;-66
2022/12/03 03:16:35;;;;;;;63.45;25.65;;;;;;;;;;5045039;28;20016;-66
2022/12/03 03:19:01;;;;;;;53.53;20.58;;;;;;;;;;5046095;28;20447;-64
2022/12/03 03:21:26;;;;;;;54.13;22.40;;;;;;;;;;5044519;28;20091;-66
2022/12/03 03:23:51;;;;;;;59.03;20.88;;;;;;;;;;5041239;28;20658;-63
2022/12/03 03:26:16;;;;;;;64.68;21.70;;;;;;;;;;5043535;28;20040;-64
2022/12/03 03:28:44;;;;;;;62.78;22.85;;;;;;;;;;5043545;28;20020;-65
2022/12/03 03:31:11;;;;;;;52.15;21.10;;;;;;;;;;5041465;28;21047;-67
2022/12/03 03:33:38;;;;;;;54.38;21.77;;;;;;;;;;5039871;28;20021;-67
2022/12/03 03:36:03;;;;;;;57.13;20.40;;;;;;;;;;5042298;28;20017;-64
2022/12/03 03:38:29;;;;;;;59.08;22.67;;;;;;;;;;5044003;28;20398;-67
2022/12/03 03:40:55;;;;;;;61.33;19.48;;;;;;;;;;5044867;28;21216;-65
2022/12/03 03:43:21;;;;;;;51.67;20.13;;;;;;;;;;5040079;28;20871;-64
2022/12/03 03:45:46;;;;;;;65.85;21.23;;;;;;;;;;5043359;28;20033;-67
2022/12/03 03:48:12;;;;;;;54.95;21.42;;;;;;;;;;5042733;28;20048;-65
2022/12/03 03:50:38;;;;;;;59.30;20.52;;;;;;;;;;5044880;28;20039;-65
2022/12/03 03:53:04;;;;;;;53.45;21.35;;;;;;;;;;5041458;28;20039;-63
2022/12/03 03:55:29;;;;;;;56.10;19.98;;;;;;;;;;5042324;28;20049;-67
2022/12/03 03:57:54;;;;;;;54.20;21.98;;;;;;;;;;5044535;28;20062;-65
2022/12/03 04:00:19;;;;;;;57.70;19.27;;;;;;;;;;5043090;28;20082;-65
2022/12/03 04:02:45;;;;;;;57.28;20.15;;;;;;;;;;5043029;28;20111;-66
2022/12/03 04:05:15;;;;;;;60.65;20.30;;;;;;;;;;5043073;28;20447;-64
2022/12/03 04:07:40;;;;;;;55.15;19.40;;;;;;;;;;5040889;28;20017;-66
2022/12/03 04:12:54;;;;;;;66.45;21.25;;;;;;;;;;5040615;28;20073;-66
2022/12/03 04:12:54;;;;;;;59.22;19.65;;;;;;;;;;5047673;28;20056;-67
2022/12/03 04:15:19;;;;;;;54.33;18.93;;;;;;;;;;5047970;28;20064;-67
2022/12/03 04:17:44;;;;;;;57.58;20.65;;;;;;;;;;5047581;28;20344;-64
2022/12/03 04:20:10;;;;;;;58.22;20.08;;;;;;;;;;5049802;28;20052;-65
2022/12/03 04:22:41;;;;;;;58.88;21.40;;;;;;;;;;5047754;28;20033;-64
2022/12/03 04:30:35;;;;;;;56.80;17.90;;;;;;;;;;5059920;28;20103;-66
2022/12/03 04:35:44;;;;;;;51.90;18.75;;;;;;;;;;5051703;28;20024;-65
2022/12/03 04:38:10;;;;;;;51.83;18.05;;;;;;;;;;5050028;28;20021;-66
2022/12/03 04:43:20;;;;;;;54.85;17.85;;;;;;;;;;5049002;28;20186;-67
2022/12/03 04:45:45;;;;;;;61.47;20.40;;;;;;;;;;5056739;28;20076;-64
2022/12/03 04:48:10;;;;;;;49.15;17.38;;;;;;;;;;5054038;28;20081;-67
2022/12/03 04:50:36;;;;;;;56.67;18.50;;;;;;;;;;5052458;28;20017;-65
2022/12/03 04:53:01;;;;;;;57.42;20.52;;;;;;;;;;5061422;28;20120;-66
2022/12/03 04:55:26;;;;;;;53.00;20.77;;;;;;;;;;5048616;28;20513;-65
2022/12/03 04:57:51;;;;;;;56.65;18.15;;;;;;;;;;5050487;28;20067;-66
2022/12/03 05:02:44;;;;;;;48.08;18.95;;;;;;;;;;5027352;28;20048;-65
2022/12/03 05:05:09;;;;;;;50.53;18.73;;;;;;;;;;5029926;28;20021;-67
2022/12/03 05:07:35;;;;;;;55.67;18.48;;;;;;;;;;5030384;28;20021;-68
2022/12/03 05:10:00;;;;;;;51.38;18.55;;;;;;;;;;5029980;28;20029;-68
2022/12/03 05:12:25;;;;;;;49.58;16.10;;;;;;;;;;5030165;28;20033;-65
2022/12/03 05:14:50;;;;;;;49.53;18.00;;;;;;;;;;5030434;28;20018;-66
2022/12/03 05:17:16;;;;;;;54.42;19.77;;;;;;;;;;5029971;28;20030;-68
2022/12/03 05:22:25;;;;;;;53.05;18.75;;;;;;;;;;5030070;28;20068;-65
2022/12/03 05:24:50;;;;;;;51.70;16.70;;;;;;;;;;5029578;28;20045;-67
2022/12/03 05:27:15;;;;;;;44.28;17.85;;;;;;;;;;5029201;28;20018;-66
2022/12/03 05:29:40;;;;;;;44.08;15.93;;;;;;;;;;5028205;28;20037;-68
2022/12/03 05:32:05;;;;;;;42.25;17.55;;;;;;;;;;5028361;28;20456;-68
2022/12/03 05:34:31;;;;;;;58.58;18.88;;;;;;;;;;5028920;28;20022;-67
2022/12/03 05:36:56;;;;;;;47.97;17.90;;;;;;;;;;5029631;28;20025;-69
2022/12/03 05:39:21;;;;;;;52.33;17.45;;;;;;;;;;5029911;28;20026;-68
2022/12/03 05:44:30;;;;;;;46.97;18.15;;;;;;;;;;5029850;28;20064;-68
2022/12/03 05:46:56;;;;;;;52.67;20.73;;;;;;;;;;5029523;28;20045;-69
2022/12/03 05:49:21;;;;;;;69.53;19.73;;;;;;;;;;5029864;28;20538;-67
2022/12/03 05:51:46;;;;;;;59.47;19.00;;;;;;;;;;5029277;28;20021;-65
2022/12/03 05:54:11;;;;;;;50.90;18.17;;;;;;;;;;5029343;28;20026;-67
2022/12/03 05:56:36;;;;;;;49.63;16.77;;;;;;;;;;5028400;28;20013;-67
2022/12/03 05:59:02;;;;;;;67.35;19.92;;;;;;;;;;5029863;28;20018;-68
2022/12/03 06:01:27;;;;;;;48.08;17.20;;;;;;;;;;5028848;28;20032;-68
2022/12/03 06:03:52;;;;;;;49.50;18.33;;;;;;;;;;5029632;28;20033;-68
2022/12/03 06:06:17;;;;;;;51.08;18.45;;;;;;;;;;5027667;28;20499;-67
2022/12/03 06:08:43;;;;;;;45.15;17.60;;;;;;;;;;5028556;28;20041;-63
2022/12/03 06:11:08;;;;;;;66.07;19.17;;;;;;;;;;5029273;28;20037;-64
2022/12/03 06:13:33;;;;;;;53.28;19.73;;;;;;;;;;5028833;28;20037;-65
2022/12/03 06:15:58;;;;;;;49.95;18.98;;;;;;;;;;5027902;28;20026;-66
2022/12/03 06:18:23;;;;;;;51.22;20.05;;;;;;;;;;5029005;28;20068;-66
2022/12/03 06:20:49;;;;;;;47.17;18.55;;;;;;;;;;5029368;28;20575;-65
2022/12/03 06:23:14;;;;;;;48.78;18.48;;;;;;;;;;5029549;28;20109;-62
2022/12/03 06:25:39;;;;;;;49.60;17.92;;;;;;;;;;5029757;28;20080;-66
2022/12/03 06:28:06;;;;;;;50.13;17.52;;;;;;;;;;5028627;28;20119;-66
2022/12/03 06:30:33;;;;;;;44.53;16.85;;;;;;;;;;5029796;28;20025;-65
2022/12/03 06:32:58;;;;;;;48.67;17.73;;;;;;;;;;5032912;28;20121;-65
2022/12/03 06:35:23;;;;;;;47.92;16.85;;;;;;;;;;5025439;28;20097;-64
2022/12/03 06:37:48;;;;;;;54.60;16.85;;;;;;;;;;5032836;28;20017;-66
2022/12/03 06:40:15;;;;;;;45.67;18.05;;;;;;;;;;5031907;28;20028;-65
2022/12/03 06:42:40;;;;;;;49.65;17.20;;;;;;;;;;5032350;28;20032;-68
2022/12/03 06:45:06;;;;;;;47.80;16.75;;;;;;;;;;5033259;28;20021;-66
2022/12/03 06:47:31;;;;;;;52.20;16.13;;;;;;;;;;5028190;28;20048;-63
2022/12/03 06:49:56;;;;;;;45.25;16.08;;;;;;;;;;5028421;28;20120;-66
2022/12/03 06:52:21;;;;;;;53.55;20.30;;;;;;;;;;5027629;28;20022;-65
2022/12/03 06:54:47;;;;;;;44.60;17.35;;;;;;;;;;5026217;28;20040;-66
2022/12/03 06:57:12;;;;;;;46.20;16.48;;;;;;;;;;5030450;28;20235;-65
2022/12/03 06:59:37;;;;;;;45.40;16.60;;;;;;;;;;5031752;28;20018;-68
2022/12/03 07:02:03;;;;;;;42.70;16.05;;;;;;;;;;5032240;28;20605;-67
2022/12/03 07:04:28;;;;;;;48.05;17.10;;;;;;;;;;5029701;28;20024;-67
2022/12/03 07:06:53;;;;;;;49.95;16.65;;;;;;;;;;5030027;28;20017;-65
2022/12/03 07:09:18;;;;;;;44.38;17.95;;;;;;;;;;5032406;28;20021;-66
2022/12/03 07:11:43;;;;;;;46.53;17.38;;;;;;;;;;5028692;28;20017;-69
2022/12/03 07:14:10;;;;;;;42.92;15.75;;;;;;;;;;5031848;28;20033;-67
2022/12/03 07:16:35;;;;;;;45.20;17.50;;;;;;;;;;5026398;28;20140;-67
2022/12/03 07:19:01;;;;;;;43.65;16.95;;;;;;;;;;5030413;28;20090;-65
2022/12/03 07:21:26;;;;;;;33.78;14.93;;;;;;;;;;5031654;28;20021;-68
2022/12/03 07:23:51;;;;;;;50.17;16.98;;;;;;;;;;5032247;28;20025;-67
2022/12/03 07:26:16;;;;;;;40.05;14.93;;;;;;;;;;5029925;28;20033;-67
2022/12/03 07:28:41;;;;;;;43.38;14.95;;;;;;;;;;5031028;28;20068;-66
2022/12/03 07:31:07;;;;;;;44.90;15.15;;;;;;;;;;5031199;28;20026;-66
2022/12/03 07:33:32;;;;;;;39.20;16.23;;;;;;;;;;5026420;28;20938;-66
2022/12/03 07:35:57;;;;;;;44.83;16.60;;;;;;;;;;5027749;28;20021;-67
2022/12/03 07:38:22;;;;;;;40.55;17.17;;;;;;;;;;5026988;28;20056;-67
2022/12/03 07:40:48;;;;;;;40.58;15.57;;;;;;;;;;5030811;28;20100;-67
2022/12/03 07:43:13;;;;;;;44.95;16.20;;;;;;;;;;5028581;28;20105;-66
2022/12/03 07:45:38;;;;;;;42.50;17.67;;;;;;;;;;5031452;28;20577;-64
2022/12/03 07:48:03;;;;;;;46.03;17.80;;;;;;;;;;5030290;28;20355;-69
2022/12/03 07:50:28;;;;;;;41.10;16.98;;;;;;;;;;5031194;28;20029;-66
2022/12/03 07:52:54;;;;;;;47.00;17.00;;;;;;;;;;5026765;28;20037;-67
2022/12/03 07:55:20;;;;;;;42.45;15.68;;;;;;;;;;5030474;28;20052;-68
2022/12/03 07:57:45;;;;;;;45.47;16.08;;;;;;;;;;5030844;28;20798;-66
2022/12/03 08:00:10;;;;;;;43.05;14.90;;;;;;;;;;5030904;28;20013;-68
2022/12/03 08:02:36;;;;;;;41.20;15.63;;;;;;;;;;5028918;28;20200;-67
2022/12/03 08:05:01;;;;;;;42.28;16.65;;;;;;;;;;5030622;28;20020;-66
2022/12/03 08:07:26;;;;;;;39.17;15.35;;;;;;;;;;5030150;28;20032;-65
2022/12/03 08:09:51;;;;;;;45.25;15.50;;;;;;;;;;5029827;28;20044;-69
2022/12/03 08:12:21;;;;;;;44.15;18.35;;;;;;;;;;5030417;28;20388;-65
2022/12/03 08:14:46;;;;;;;42.55;16.88;;;;;;;;;;5030941;28;20024;-65
2022/12/03 08:17:12;;;;;;;43.25;19.05;;;;;;;;;;5029121;28;20105;-67
2022/12/03 08:19:37;;;;;;;42.00;16.75;;;;;;;;;;5030470;28;20020;-67
2022/12/03 08:22:09;;;;;;;44.60;16.23;;;;;;;;;;5027765;28;20359;-67
2022/12/03 08:24:35;;;;;;;37.28;16.40;;;;;;;;;;5031338;28;20525;-69
2022/12/03 08:27:00;;;;;;;46.50;19.05;;;;;;;;;;5030801;28;20021;-64
2022/12/03 08:29:26;;;;;;;42.10;18.33;;;;;;;;;;5030792;28;20022;-66
2022/12/03 08:31:55;;;;;;;41.80;17.52;;;;;;;;;;5030992;28;20025;-66
2022/12/03 08:34:26;;;;;;;41.90;17.55;;;;;;;;;;5030729;28;20021;-66
2022/12/03 08:36:56;;;;;;;44.03;17.13;;;;;;;;;;5030633;28;20060;-64
2022/12/03 08:39:42;;;;;;;42.85;16.40;;;;;;;;;;5030737;28;20018;-64
2022/12/03 08:42:42;;;;;;;38.60;15.88;;;;;;;;;;5030972;28;20598;-66
2022/12/03 08:45:38;;;;;;;45.60;17.33;;;;;;;;;;5030613;28;20432;-67
2022/12/03 08:48:24;;;;;;;44.83;18.88;;;;;;;;;;5020472;28;20013;-66
2022/12/03 08:50:49;;;;;;;38.85;16.00;;;;;;;;;;5025704;28;20667;-67
2022/12/03 08:53:27;;;;;;;46.85;16.98;;;;;;;;;;5027608;28;20017;-66
2022/12/03 08:55:53;;;;;;;49.28;17.65;;;;;;;;;;5027279;28;20104;-67
2022/12/03 08:58:31;;;;;;;46.42;16.42;;;;;;;;;;5029041;28;20021;-69
2022/12/03 09:00:59;;;;;;;40.80;17.50;;;;;;;;;;5028661;28;20615;-66
2022/12/03 09:03:27;;;;;;;41.55;15.68;;;;;;;;;;5030444;28;20506;-67
2022/12/03 09:05:53;;;;;;;39.30;15.38;;;;;;;;;;5030493;28;20056;-68
2022/12/03 09:08:18;;;;;;;39.95;15.30;;;;;;;;;;5028380;28;20057;-67
2022/12/03 09:10:43;;;;;;;42.92;16.17;;;;;;;;;;5022367;28;20053;-68
2022/12/03 09:13:08;;;;;;;48.15;19.05;;;;;;;;;;5025336;28;20110;-67
2022/12/03 09:15:34;;;;;;;39.83;16.15;;;;;;;;;;5030541;28;20097;-68
2022/12/03 09:17:59;;;;;;;39.30;16.27;;;;;;;;;;5029918;28;20014;-67
2022/12/03 09:20:24;;;;;;;39.85;16.33;;;;;;;;;;5029330;28;20033;-67
2022/12/03 09:22:49;;;;;;;45.45;16.85;;;;;;;;;;5029067;28;20106;-67
2022/12/03 09:25:15;;;;;;;37.75;15.43;;;;;;;;;;5029876;28;20383;-68
2022/12/03 09:27:41;;;;;;;45.40;18.42;;;;;;;;;;5029241;28;20128;-65
2022/12/03 09:30:06;;;;;;;38.78;16.55;;;;;;;;;;5028571;28;20543;-64
2022/12/03 09:32:32;;;;;;;47.38;17.83;;;;;;;;;;5029627;28;20026;-70
2022/12/03 09:34:57;;;;;;;42.72;17.75;;;;;;;;;;5029168;28;20360;-66
2022/12/03 09:37:22;;;;;;;46.40;16.85;;;;;;;;;;5029335;28;20052;-66
2022/12/03 09:39:47;;;;;;;39.20;17.60;;;;;;;;;;5028633;28;20109;-64
2022/12/03 09:42:13;;;;;;;41.65;16.27;;;;;;;;;;5028955;28;20434;-67
2022/12/03 09:44:39;;;;;;;37.70;16.88;;;;;;;;;;5028545;28;20045;-66
2022/12/03 09:47:04;;;;;;;44.83;16.48;;;;;;;;;;5028769;28;20058;-65
2022/12/03 09:49:31;;;;;;;43.58;16.90;;;;;;;;;;5029534;28;20080;-67
2022/12/03 09:51:56;;;;;;;45.45;17.17;;;;;;;;;;5028391;28;20040;-67
2022/12/03 09:54:23;;;;;;;48.70;18.70;;;;;;;;;;5029659;28;20148;-67
2022/12/03 09:56:48;;;;;;;51.60;18.20;;;;;;;;;;5029033;28;20024;-66
2022/12/03 09:59:14;;;;;;;43.65;17.45;;;;;;;;;;5029370;28;20026;-67
2022/12/03 10:01:39;;;;;;;38.70;17.17;;;;;;;;;;5029416;28;20068;-67
2022/12/03 10:04:05;;;;;;;40.15;16.33;;;;;;;;;;5029049;28;20432;-64
2022/12/03 10:06:30;;;;;;;43.78;18.60;;;;;;;;;;5027536;28;20152;-69
2022/12/03 10:08:55;;;;;;;41.03;17.05;;;;;;;;;;5029137;28;20028;-69
2022/12/03 10:11:22;;;;;;;44.95;17.10;;;;;;;;;;5017969;28;20026;-68
2022/12/03 10:13:47;;;;;;;43.80;17.77;;;;;;;;;;5028906;28;20075;-70
2022/12/03 10:16:15;;;;;;;44.35;17.67;;;;;;;;;;5028946;28;20021;-66
2022/12/03 10:18:43;;;;;;;47.20;17.98;;;;;;;;;;5028837;28;20032;-69
2022/12/03 10:21:13;;;;;;;37.53;16.33;;;;;;;;;;5029104;28;20028;-69
2022/12/03 10:23:39;;;;;;;40.42;17.25;;;;;;;;;;5028804;28;20104;-66
2022/12/03 10:26:04;;;;;;;45.40;19.33;;;;;;;;;;5029156;28;20101;-68
2022/12/03 10:28:31;;;;;;;43.45;17.58;;;;;;;;;;5028352;28;20025;-68
2022/12/03 10:30:57;;;;;;;35.53;16.92;;;;;;;;;;5028390;28;20029;-68
2022/12/03 10:33:27;;;;;;;50.67;18.77;;;;;;;;;;5029209;28;20021;-69
2022/12/03 10:35:53;;;;;;;41.50;16.60;;;;;;;;;;5029302;28;20033;-68
2022/12/03 10:38:21;;;;;;;45.35;17.48;;;;;;;;;;5029565;28;20018;-64
2022/12/03 10:40:46;;;;;;;51.22;20.67;;;;;;;;;;5029767;28;20487;-65
2022/12/03 10:43:11;;;;;;;41.58;16.88;;;;;;;;;;5029598;28;20025;-69
2022/12/03 10:45:36;;;;;;;45.25;17.48;;;;;;;;;;5029133;28;20348;-68
2022/12/03 10:48:04;;;;;;;49.75;18.52;;;;;;;;;;5028217;28;20040;-68
2022/12/03 10:50:30;;;;;;;44.85;17.20;;;;;;;;;;5028964;28;20033;-70
2022/12/03 10:52:55;;;;;;;48.95;21.20;;;;;;;;;;5028574;28;20025;-69
2022/12/03 10:55:20;;;;;;;47.45;19.02;;;;;;;;;;5025322;28;20045;-69
2022/12/03 10:57:46;;;;;;;50.45;18.27;;;;;;;;;;5028312;28;20029;-65
2022/12/03 11:00:16;;;;;;;47.85;17.70;;;;;;;;;;5028445;28;20096;-67
2022/12/03 11:02:41;;;;;;;54.25;20.55;;;;;;;;;;5063933;22;20073;-67
2022/12/03 11:05:11;;;;;;;46.70;19.67;;;;;;;;;;5047317;28;20060;-65
2022/12/03 11:07:37;;;;;;;52.10;17.60;;;;;;;;;;5046876;28;20044;-65
2022/12/03 11:10:04;;;;;;;48.75;19.77;;;;;;;;;;5047267;28;20082;-66
2022/12/03 11:12:33;;;;;;;49.70;18.45;;;;;;;;;;5034955;28;20514;-65
2022/12/03 11:15:05;;;;;;;45.83;17.52;;;;;;;;;;5043997;28;20074;-65
2022/12/03 11:17:45;;;;;;;53.38;19.80;;;;;;;;;;5015103;28;20028;-67
2022/12/03 11:20:19;;;;;;;47.30;20.13;;;;;;;;;;5031494;28;20021;-66
2022/12/03 11:22:48;;;;;;;48.13;17.42;;;;;;;;;;5025568;28;20116;-66
2022/12/03 11:25:25;;;;;;;56.13;20.20;;;;;;;;;;5038019;28;20020;-67
2022/12/03 11:28:09;;;;;;;48.58;18.70;;;;;;;;;;5041978;28;20560;-66
2022/12/03 11:30:57;;;;;;;49.40;19.08;;;;;;;;;;5035284;28;20079;-68
2022/12/03 11:33:24;;;;;;;49.20;20.00;;;;;;;;;;5015829;28;20053;-66
2022/12/03 11:36:01;;;;;;;50.03;18.50;;;;;;;;;;5029991;28;20018;-65
2022/12/03 11:38:36;;;;;;;53.53;21.70;;;;;;;;;;5026598;28;20033;-67
2022/12/03 11:41:19;;;;;;;56.03;20.38;;;;;;;;;;5030174;28;20674;-66
2022/12/03 11:43:51;;;;;;;57.05;19.77;;;;;;;;;;5019715;28;20017;-64
2022/12/03 11:46:17;;;;;;;58.33;23.70;;;;;;;;;;5020164;28;20450;-67
2022/12/03 11:48:43;;;;;;;63.30;23.50;;;;;;;;;;5041197;28;20021;-68
2022/12/03 11:51:12;;;;;;;54.85;20.85;;;;;;;;;;5043966;28;20026;-67
2022/12/03 11:53:38;;;;;;;54.70;20.20;;;;;;;;;;5030078;28;20041;-65
2022/12/03 11:56:07;;;;;;;55.63;20.05;;;;;;;;;;5034125;28;20415;-66
2022/12/03 11:58:33;;;;;;;55.38;21.30;;;;;;;;;;5038054;28;20017;-69
2022/12/03 12:01:00;;;;;;;46.83;20.23;;;;;;;;;;5029797;28;20456;-65
2022/12/03 12:03:25;;;;;;;58.95;20.73;;;;;;;;;;5028706;28;20158;-66
2022/12/03 12:06:09;;;;;;;57.65;22.45;;;;;;;;;;5029808;28;20033;-67
2022/12/03 12:08:49;;;;;;;;;;;;;;;;;;5010260;28;20056;-64
2022/12/03 12:11:15;;;;;;;58.75;21.20;;;;;;;;;;5039206;28;20027;-67
2022/12/03 12:13:40;;;;;;;51.22;20.88;;;;;;;;;;5036632;28;20021;-65
2022/12/03 12:16:07;;;;;;;60.35;21.33;;;;;;;;;;5039246;28;20030;-67
2022/12/03 12:18:32;;;;;;;47.60;19.67;;;;;;;;;;5028888;28;20029;-66
2022/12/03 12:21:17;;;;;;;55.38;20.83;;;;;;;;;;5020572;28;20017;-68
2022/12/03 12:23:43;;;;;;;56.85;21.17;;;;;;;;;;5035179;28;20036;-64
2022/12/03 12:26:08;;;;;;;65.20;21.52;;;;;;;;;;5038255;28;20055;-67
2022/12/03 12:28:33;;;;;;;68.10;21.88;;;;;;;;;;5041832;28;20029;-67
2022/12/03 12:30:58;;;;;;;48.72;20.60;;;;;;;;;;5029019;28;20074;-68
2022/12/03 12:33:24;;;;;;;53.38;21.70;;;;;;;;;;5011040;28;20045;-65
2022/12/03 12:35:50;;;;;;;57.78;22.90;;;;;;;;;;5025893;28;20016;-65
2022/12/03 12:38:17;;;;;;;65.70;22.60;;;;;;;;;;5033559;28;20025;-68
2022/12/03 12:40:44;;;;;;;54.80;20.70;;;;;;;;;;5042240;28;20048;-64
2022/12/03 12:43:09;;;;;;;56.45;21.02;;;;;;;;;;5030080;28;20022;-68
2022/12/03 12:45:35;;;;;;;57.15;21.30;;;;;;;;;;5029706;28;20040;-66
2022/12/03 12:48:13;;;;;;;71.75;22.92;;;;;;;;;;5042380;28;20109;-66
2022/12/03 12:50:39;;;;;;;58.25;22.75;;;;;;;;;;5042526;28;20013;-67
2022/12/03 12:53:23;;;;;;;60.63;24.52;;;;;;;;;;5029622;28;20030;-68
2022/12/03 12:55:53;;;;;;;65.78;24.08;;;;;;;;;;5019483;28;20065;-65
2022/12/03 12:58:18;;;;;;;69.20;26.80;;;;;;;;;;5041887;28;20102;-65
2022/12/03 13:00:49;;;;;;;60.38;23.50;;;;;;;;;;5028701;28;20410;-67
2022/12/03 13:03:15;;;;;;;70.60;24.67;;;;;;;;;;5042726;28;20033;-66
2022/12/03 13:05:42;;;;;;;59.40;23.38;;;;;;;;;;5017066;28;20026;-67
2022/12/03 13:08:28;;;;;;;68.40;24.58;;;;;;;;;;5011996;28;20425;-67
2022/12/03 13:10:54;;;;;;;61.70;23.65;;;;;;;;;;5014862;28;20125;-67
2022/12/03 13:13:22;;;;;;;57.97;21.42;;;;;;;;;;5007693;28;20105;-64
2022/12/03 13:15:47;;;;;;;68.45;23.65;;;;;;;;;;5015872;28;20044;-67
2022/12/03 13:18:40;;;;;;;64.88;24.90;;;;;;;;;;5010681;28;20025;-66
2022/12/03 13:21:12;;;;;;;63.65;22.35;;;;;;;;;;4998651;28;20030;-67
2022/12/03 13:23:38;;;;;;;70.07;24.05;;;;;;;;;;5017965;28;20030;-67
2022/12/03 13:26:13;;;;;;;72.95;25.63;;;;;;;;;;5014115;28;20028;-64
2022/12/03 13:28:39;;;;;;;55.80;21.88;;;;;;;;;;5012655;28;20053;-65
2022/12/03 13:31:20;;;;;;;68.30;23.55;;;;;;;;;;5013053;28;20034;-65
2022/12/03 13:33:45;;;;;;;66.95;23.63;;;;;;;;;;5016041;28;20438;-67
2022/12/03 13:36:13;;;;;;;68.85;23.95;;;;;;;;;;5012903;28;20021;-65
2022/12/03 13:38:38;;;;;;;71.55;23.95;;;;;;;;;;5009414;28;20050;-65
2022/12/03 13:41:03;;;;;;;58.95;21.88;;;;;;;;;;5013101;28;20094;-65
2022/12/03 13:43:32;;;;;;;74.53;25.42;;;;;;;;;;5012815;28;20742;-67
2022/12/03 13:46:00;;;;;;;69.25;26.33;;;;;;;;;;5012037;28;20033;-64
2022/12/03 13:48:25;;;;;;;68.93;24.58;;;;;;;;;;5010818;28;20052;-66
2022/12/03 13:50:51;;;;;;;70.13;24.17;;;;;;;;;;5013482;28;20054;-64
2022/12/03 13:53:31;;;;;;;75.10;24.77;;;;;;;;;;5015163;28;20907;-66
2022/12/03 13:55:57;;;;;;;71.28;25.25;;;;;;;;;;5014289;28;20059;-67
2022/12/03 13:58:23;;;;;;;74.18;23.42;;;;;;;;;;5014104;28;20045;-66
2022/12/03 14:00:48;;;;;;;66.45;24.00;;;;;;;;;;5011185;28;20136;-66
2022/12/03 14:03:13;;;;;;;69.88;22.73;;;;;;;;;;5009920;28;20057;-66
2022/12/03 14:05:38;;;;;;;82.03;25.08;;;;;;;;;;5008973;28;20025;-64
2022/12/03 14:08:04;;;;;;;67.28;25.27;;;;;;;;;;5018040;28;20056;-64
2022/12/03 14:10:30;;;;;;;60.20;22.27;;;;;;;;;;5010411;28;20028;-66
2022/12/03 14:12:55;;;;;;;74.15;24.58;;;;;;;;;;5010282;28;20037;-66
2022/12/03 14:15:21;;;;;;;77.82;25.08;;;;;;;;;;5011309;28;20022;-64
2022/12/03 14:17:46;;;;;;;65.07;23.95;;;;;;;;;;5011906;28;20030;-64
2022/12/03 14:20:12;;;;;;;63.33;21.55;;;;;;;;;;5011437;28;20751;-64
2022/12/03 14:22:38;;;;;;;79.93;23.67;;;;;;;;;;5020008;28;20040;-64
2022/12/03 14:25:04;;;;;;;66.28;24.30;;;;;;;;;;5026757;28;20025;-66
2022/12/03 14:27:29;;;;;;;61.42;23.88;;;;;;;;;;5026987;28;20436;-66
2022/12/03 14:29:54;;;;;;;73.85;24.55;;;;;;;;;;5033926;28;20116;-66
2022/12/03 14:32:20;;;;;;;56.58;20.42;;;;;;;;;;5024068;28;20034;-65
2022/12/03 14:34:45;;;;;;;73.03;24.30;;;;;;;;;;5039917;28;20037;-67
2022/12/03 14:37:10;;;;;;;76.57;25.85;;;;;;;;;;5027696;28;20479;-65
2022/12/03 14:39:36;;;;;;;78.63;25.80;;;;;;;;;;5027654;28;20051;-66